createdAt,value
2022-07-30T00:01:14.367Z,98213.75
2022-07-30T00:03:41.019Z,98214.34
2022-07-30T00:06:07.795Z,98212.72
2022-07-30T00:08:35.064Z,98202.28
2022-07-30T00:11:01.607Z,98199.03
2022-07-30T00:13:28.184Z,98205.56
2022-07-30T00:15:54.823Z,98202.97
2022-07-30T00:18:22.418Z,98195.56
2022-07-30T00:20:49.558Z,98188.34
2022-07-30T00:23:17.339Z,98197.19
2022-07-30T00:25:44.390Z,98182.28
2022-07-30T00:28:11.053Z,98177.19
2022-07-30T00:30:38.900Z,98173.34
2022-07-30T00:33:05.535Z,98171.47
2022-07-30T00:35:34.885Z,98174.88
2022-07-30T00:38:01.601Z,98173.09
2022-07-30T00:40:28.678Z,98176.88
2022-07-30T00:42:55.269Z,98170.00
2022-07-30T00:45:22.286Z,98172.75
2022-07-30T00:47:48.964Z,98178.34
2022-07-30T00:50:16.442Z,98170.09
2022-07-30T00:52:43.876Z,98174.38
2022-07-30T00:55:13.538Z,98168.34
2022-07-30T00:57:41.324Z,98168.59
2022-07-30T01:00:11.450Z,98176.41
2022-07-30T01:02:38.236Z,98175.63
2022-07-30T01:05:05.774Z,98174.78
2022-07-30T01:07:32.562Z,98174.97
2022-07-30T01:09:59.154Z,98169.28
2022-07-30T01:12:27.385Z,98172.09
2022-07-30T01:14:56.085Z,98178.72
2022-07-30T01:17:22.856Z,98177.75
2022-07-30T01:19:52.583Z,98183.22
2022-07-30T01:22:28.995Z,98187.09
2022-07-30T01:25:07.611Z,98191.31
2022-07-30T01:27:40.411Z,98190.16
2022-07-30T01:30:08.667Z,98196.91
2022-07-30T01:32:38.906Z,98193.78
2022-07-30T01:35:07.542Z,98190.72
2022-07-30T01:37:35.036Z,98202.75
2022-07-30T01:40:03.454Z,98198.16
2022-07-30T01:42:31.065Z,98200.03
2022-07-30T01:44:59.316Z,98197.41
2022-07-30T01:47:28.384Z,98197.59
2022-07-30T01:49:57.222Z,98198.03
2022-07-30T01:52:26.804Z,98191.06
2022-07-30T01:54:56.142Z,98194.53
2022-07-30T01:57:23.433Z,98199.91
2022-07-30T01:59:54.901Z,98199.03
2022-07-30T02:02:21.657Z,98208.44
2022-07-30T02:04:48.958Z,98202.84
2022-07-30T02:07:23.122Z,98205.69
2022-07-30T02:10:01.716Z,98203.81
2022-07-30T02:12:34.146Z,98202.50
2022-07-30T02:15:27.005Z,98205.88
2022-07-30T02:18:03.189Z,98199.69
2022-07-30T02:20:33.737Z,98199.41
2022-07-30T02:23:07.105Z,98204.88
2022-07-30T02:25:35.783Z,98197.31
2022-07-30T02:28:09.413Z,98191.25
2022-07-30T02:30:40.538Z,98190.03
2022-07-30T02:33:10.688Z,98199.38
2022-07-30T02:35:38.918Z,98190.63
2022-07-30T02:38:06.789Z,98199.59
2022-07-30T02:40:33.599Z,98204.97
2022-07-30T02:43:01.576Z,98200.66
2022-07-30T02:45:30.788Z,98206.91
2022-07-30T02:48:03.943Z,98198.19
2022-07-30T02:50:31.205Z,98204.59
2022-07-30T02:52:59.526Z,98199.53
2022-07-30T02:55:28.386Z,98196.78
2022-07-30T02:57:56.427Z,98208.72
2022-07-30T03:00:24.954Z,98201.19
2022-07-30T03:02:56.643Z,98203.13
2022-07-30T03:05:25.177Z,98201.31
2022-07-30T03:07:58.242Z,98201.91
2022-07-30T03:10:27.188Z,98195.25
2022-07-30T03:12:55.058Z,98194.59
2022-07-30T03:15:21.918Z,98199.41
2022-07-30T03:17:53.900Z,98198.69
2022-07-30T03:20:27.547Z,98194.00
2022-07-30T03:22:55.583Z,98195.81
2022-07-30T03:25:29.720Z,98187.78
2022-07-30T03:28:00.212Z,98192.56
2022-07-30T03:30:28.369Z,98201.69
2022-07-30T03:32:56.161Z,98206.09
2022-07-30T03:35:26.612Z,98206.97
2022-07-30T03:37:55.359Z,98211.44
2022-07-30T03:40:23.136Z,98210.06
2022-07-30T03:42:50.672Z,98214.56
2022-07-30T03:45:21.652Z,98213.63
2022-07-30T03:47:50.008Z,98215.00
2022-07-30T03:50:16.785Z,98216.25
2022-07-30T03:52:44.136Z,98215.75
2022-07-30T03:55:16.024Z,98223.94
2022-07-30T03:57:49.008Z,98225.78
2022-07-30T04:00:17.324Z,98225.31
2022-07-30T04:02:49.689Z,98224.91
2022-07-30T04:05:19.373Z,98234.75
2022-07-30T04:07:47.132Z,98237.88
2022-07-30T04:10:16.609Z,98238.75
2022-07-30T04:13:09.742Z,98240.13
2022-07-30T04:16:41.535Z,98238.88
2022-07-30T04:18:56.372Z,98248.94
2022-07-30T04:21:26.965Z,98244.81
2022-07-30T04:24:03.837Z,98256.09
2022-07-30T04:26:34.136Z,98253.63
2022-07-30T04:29:01.846Z,98255.38
2022-07-30T04:31:29.960Z,98267.81
2022-07-30T04:34:04.776Z,98262.59
2022-07-30T04:36:39.426Z,98264.78
2022-07-30T04:39:06.081Z,98262.06
2022-07-30T04:41:36.272Z,98261.97
2022-07-30T04:44:29.353Z,98268.63
2022-07-30T04:47:25.510Z,98276.56
2022-07-30T04:50:15.219Z,98273.75
2022-07-30T04:52:44.449Z,98281.19
2022-07-30T04:55:15.176Z,98279.94
2022-07-30T04:57:45.168Z,98274.28
2022-07-30T05:00:12.320Z,98275.03
2022-07-30T05:02:42.015Z,98276.25
2022-07-30T05:05:11.998Z,98273.19
2022-07-30T05:07:39.608Z,98290.28
2022-07-30T05:10:09.131Z,98282.41
2022-07-30T05:12:40.021Z,98275.66
2022-07-30T05:15:08.994Z,98275.16
2022-07-30T05:17:36.987Z,98287.44
2022-07-30T05:20:06.651Z,98293.50
2022-07-30T05:22:51.109Z,98293.94
2022-07-30T05:25:18.640Z,98291.72
2022-07-30T05:27:45.527Z,98292.84
2022-07-30T05:30:12.385Z,98290.47
2022-07-30T05:32:44.060Z,98293.66
2022-07-30T05:35:13.407Z,98295.09
2022-07-30T05:37:40.069Z,98299.50
2022-07-30T05:40:07.617Z,98289.25
2022-07-30T05:43:00.311Z,98295.06
2022-07-30T05:45:27.724Z,98292.22
2022-07-30T05:47:54.312Z,98298.25
2022-07-30T05:50:21.036Z,98298.38
2022-07-30T05:52:47.897Z,98293.66
2022-07-30T05:55:36.437Z,98295.63
2022-07-30T05:58:17.598Z,98291.69
2022-07-30T06:00:44.551Z,98298.69
2022-07-30T06:03:11.276Z,98298.44
2022-07-30T06:05:56.496Z,98292.38
2022-07-30T06:08:23.116Z,98300.81
2022-07-30T06:10:49.832Z,98295.41
2022-07-30T06:13:16.474Z,98306.28
2022-07-30T06:15:43.112Z,98305.03
2022-07-30T06:18:09.780Z,98305.91
2022-07-30T06:20:41.907Z,98309.25
2022-07-30T06:23:21.311Z,98312.50
2022-07-30T06:26:02.218Z,98305.66
2022-07-30T06:28:37.591Z,98304.16
2022-07-30T06:31:12.363Z,98316.63
2022-07-30T06:33:39.013Z,98307.81
2022-07-30T06:36:05.974Z,98308.66
2022-07-30T06:38:41.855Z,98315.22
2022-07-30T06:41:15.797Z,98311.84
2022-07-30T06:43:51.512Z,98313.69
2022-07-30T06:46:41.302Z,98317.81
2022-07-30T06:49:10.522Z,98322.94
2022-07-30T06:51:37.214Z,98318.38
2022-07-30T06:54:03.994Z,98331.03
2022-07-30T06:56:30.556Z,98326.34
2022-07-30T06:59:02.986Z,98321.28
2022-07-30T07:01:48.201Z,98327.66
2022-07-30T07:04:15.019Z,98321.69
2022-07-30T07:06:41.691Z,98332.50
2022-07-30T07:09:14.546Z,98322.97
2022-07-30T07:11:47.812Z,98331.63
2022-07-30T07:14:18.026Z,98332.47
2022-07-30T07:16:44.894Z,98322.81
2022-07-30T07:20:01.684Z,98330.41
2022-07-30T07:22:34.571Z,98335.78
2022-07-30T07:25:01.253Z,98331.47
2022-07-30T07:27:30.845Z,98334.06
2022-07-30T07:30:04.945Z,98335.22
2022-07-30T07:32:35.176Z,98334.94
2022-07-30T07:35:02.639Z,98333.50
2022-07-30T07:37:29.607Z,98333.50
2022-07-30T07:39:56.392Z,98331.13
2022-07-30T07:42:23.584Z,98339.59
2022-07-30T07:44:50.792Z,98341.97
2022-07-30T07:47:18.238Z,98333.50
2022-07-30T07:49:57.702Z,98334.63
2022-07-30T07:52:24.376Z,98331.88
2022-07-30T07:54:50.980Z,98336.09
2022-07-30T07:57:18.017Z,98336.91
2022-07-30T07:59:47.109Z,98331.97
2022-07-30T08:02:21.242Z,98343.94
2022-07-30T08:05:06.824Z,98337.69
2022-07-30T08:07:50.702Z,98340.72
2022-07-30T08:10:49.165Z,98334.69
2022-07-30T08:13:51.399Z,98334.66
2022-07-30T08:16:37.933Z,98334.28
2022-07-30T08:19:21.309Z,98331.59
2022-07-30T08:22:06.565Z,98339.97
2022-07-30T08:24:33.404Z,98334.69
2022-07-30T08:27:00.653Z,98346.69
2022-07-30T08:29:27.634Z,98340.00
2022-07-30T08:31:54.331Z,98341.84
2022-07-30T08:34:25.531Z,98351.59
2022-07-30T08:36:53.248Z,98344.06
2022-07-30T08:39:19.980Z,98349.44
2022-07-30T08:41:47.126Z,98344.38
2022-07-30T08:44:18.682Z,98345.63
2022-07-30T08:46:50.751Z,98349.41
2022-07-30T08:49:28.009Z,98356.94
2022-07-30T08:51:55.543Z,98347.81
2022-07-30T08:54:41.363Z,98346.69
2022-07-30T08:57:08.432Z,98351.47
2022-07-30T09:00:00.157Z,98356.19
2022-07-30T09:02:27.549Z,98353.13
2022-07-30T09:05:04.862Z,98351.06
2022-07-30T09:07:35.703Z,98350.28
2022-07-30T09:10:05.500Z,98350.03
2022-07-30T09:12:38.131Z,98350.66
2022-07-30T09:15:09.448Z,98350.63
2022-07-30T09:17:50.078Z,98345.19
2022-07-30T09:20:17.781Z,98348.50
2022-07-30T09:22:50.118Z,98350.25
2022-07-30T09:25:57.040Z,98349.41
2022-07-30T09:28:53.346Z,98355.97
2022-07-30T09:31:56.668Z,98356.22
2022-07-30T09:34:46.047Z,98348.38
2022-07-30T09:37:33.677Z,98351.00
2022-07-30T09:40:18.879Z,98351.38
2022-07-30T09:43:13.284Z,98346.16
2022-07-30T09:46:01.648Z,98347.38
2022-07-30T09:48:28.755Z,98359.09
2022-07-30T09:50:57.394Z,98345.78
2022-07-30T09:53:25.019Z,98356.44
2022-07-30T09:55:52.067Z,98355.91
2022-07-30T09:58:27.106Z,98360.22
2022-07-30T10:01:01.570Z,98358.03
2022-07-30T10:03:54.604Z,98352.88
2022-07-30T10:06:48.564Z,98358.00
2022-07-30T10:09:37.320Z,98359.66
2022-07-30T10:12:05.986Z,98355.00
2022-07-30T10:14:42.691Z,98353.31
2022-07-30T10:17:10.449Z,98352.56
2022-07-30T10:19:41.951Z,98352.16
2022-07-30T10:22:27.959Z,98350.09
2022-07-30T10:25:18.872Z,98353.56
2022-07-30T10:28:14.641Z,98349.72
2022-07-30T10:30:43.642Z,98346.81
2022-07-30T10:33:34.929Z,98349.25
2022-07-30T10:35:59.065Z,98357.56
2022-07-30T10:38:30.318Z,98348.50
2022-07-30T10:41:01.656Z,98347.53
2022-07-30T10:43:52.312Z,98352.16
2022-07-30T10:46:40.499Z,98348.31
2022-07-30T10:49:18.601Z,98351.75
2022-07-30T10:51:50.779Z,98347.44
2022-07-30T10:54:36.508Z,98346.25
2022-07-30T10:57:32.108Z,98336.69
2022-07-30T10:59:59.993Z,98337.78
2022-07-30T11:02:29.312Z,98343.88
2022-07-30T11:05:27.130Z,98352.50
2022-07-30T11:08:36.391Z,98350.34
2022-07-30T11:12:05.763Z,98334.66
2022-07-30T11:14:15.769Z,98346.25
2022-07-30T11:16:42.838Z,98343.22
2022-07-30T11:19:57.032Z,98339.34
2022-07-30T11:22:41.240Z,98340.50
2022-07-30T11:25:13.005Z,98341.34
2022-07-30T11:27:41.104Z,98346.16
2022-07-30T11:30:17.882Z,98348.69
2022-07-30T11:32:50.551Z,98351.56
2022-07-30T11:35:23.310Z,98343.72
2022-07-30T11:37:55.960Z,98343.84
2022-07-30T11:40:26.204Z,98336.16
2022-07-30T11:43:20.678Z,98338.66
2022-07-30T11:46:18.047Z,98340.06
2022-07-30T11:48:56.927Z,98341.41
2022-07-30T11:51:24.013Z,98333.75
2022-07-30T11:54:03.658Z,98322.19
2022-07-30T11:56:30.419Z,98329.63
2022-07-30T11:59:05.369Z,98328.75
2022-07-30T12:01:33.611Z,98327.47
2022-07-30T12:04:05.161Z,98328.13
2022-07-30T12:06:32.274Z,98324.69
2022-07-30T12:08:59.731Z,98326.09
2022-07-30T12:11:32.911Z,98333.78
2022-07-30T12:14:02.175Z,98317.69
2022-07-30T12:16:30.933Z,98314.28
2022-07-30T12:19:05.491Z,98319.47
2022-07-30T12:21:32.714Z,98320.59
2022-07-30T12:24:05.314Z,98323.34
2022-07-30T12:26:34.433Z,98314.09
2022-07-30T12:29:05.273Z,98319.50
2022-07-30T12:31:38.466Z,98315.94
2022-07-30T12:34:23.173Z,98315.56
2022-07-30T12:36:50.194Z,98317.78
2022-07-30T12:39:22.235Z,98324.97
2022-07-30T12:41:51.079Z,98319.56
2022-07-30T12:44:41.687Z,98316.28
2022-07-30T12:47:35.522Z,98327.28
2022-07-30T12:50:03.915Z,98328.75
2022-07-30T12:52:33.711Z,98331.94
2022-07-30T12:55:09.072Z,98322.00
2022-07-30T12:57:55.662Z,98318.25
2022-07-30T13:00:24.594Z,98315.97
2022-07-30T13:02:51.562Z,98309.72
2022-07-30T13:05:18.292Z,98316.94
2022-07-30T13:07:59.068Z,98327.41
2022-07-30T13:10:31.257Z,98320.66
2022-07-30T13:12:59.030Z,98311.19
2022-07-30T13:15:26.393Z,98309.25
2022-07-30T13:17:53.024Z,98302.94
2022-07-30T13:20:19.815Z,98312.44
2022-07-30T13:22:46.465Z,98298.84
2022-07-30T13:25:13.519Z,98309.28
2022-07-30T13:27:40.198Z,98318.47
2022-07-30T13:30:07.829Z,98302.69
2022-07-30T13:32:35.374Z,98311.09
2022-07-30T13:35:02.222Z,98307.91
2022-07-30T13:37:38.333Z,98308.63
2022-07-30T13:40:06.919Z,98306.56
2022-07-30T13:42:33.669Z,98306.31
2022-07-30T13:45:00.321Z,98313.13
2022-07-30T13:47:26.921Z,98304.19
2022-07-30T13:49:53.622Z,98304.53
2022-07-30T13:52:20.187Z,98309.34
2022-07-30T13:54:46.829Z,98304.75
2022-07-30T13:57:13.476Z,98306.25
2022-07-30T13:59:40.039Z,98307.44
2022-07-30T14:02:06.673Z,98300.28
2022-07-30T14:04:33.290Z,98302.50
2022-07-30T14:07:00.123Z,98278.31
2022-07-30T14:09:26.983Z,98281.19
2022-07-30T14:11:54.085Z,98281.31
2022-07-30T14:14:22.584Z,98282.88
2022-07-30T14:16:53.709Z,98287.13
2022-07-30T14:19:23.116Z,98284.22
2022-07-30T14:21:52.867Z,98290.50
2022-07-30T14:24:20.549Z,98288.84
2022-07-30T14:26:47.148Z,98286.91
2022-07-30T14:29:13.885Z,98278.19
2022-07-30T14:31:40.777Z,98280.31
2022-07-30T14:34:07.605Z,98289.22
2022-07-30T14:36:34.819Z,98290.78
2022-07-30T14:39:04.752Z,98294.66
2022-07-30T14:41:31.853Z,98279.88
2022-07-30T14:43:58.507Z,98293.34
2022-07-30T14:46:25.095Z,98290.25
2022-07-30T14:48:51.773Z,98279.72
2022-07-30T14:51:24.276Z,98288.38
2022-07-30T14:53:52.214Z,98290.63
2022-07-30T14:56:19.465Z,98299.13
2022-07-30T14:58:46.325Z,98294.31
2022-07-30T15:01:16.675Z,98300.97
2022-07-30T15:03:45.315Z,98310.47
2022-07-30T15:06:13.050Z,98307.13
2022-07-30T15:08:39.676Z,98304.34
2022-07-30T15:11:08.035Z,98307.41
2022-07-30T15:13:37.080Z,98299.84
2022-07-30T15:16:16.365Z,98304.19
2022-07-30T15:18:42.925Z,98305.88
2022-07-30T15:21:09.557Z,98302.66
2022-07-30T15:23:36.223Z,98304.81
2022-07-30T15:26:02.812Z,98305.66
2022-07-30T15:28:29.383Z,98305.75
2022-07-30T15:30:56.113Z,98316.38
2022-07-30T15:33:22.774Z,98309.66
2022-07-30T15:35:49.594Z,98313.06
2022-07-30T15:38:16.327Z,98309.63
2022-07-30T15:40:43.827Z,98314.06
2022-07-30T15:43:10.667Z,98307.56
2022-07-30T15:45:51.295Z,98311.25
2022-07-30T15:48:26.631Z,98308.75
2022-07-30T15:51:01.798Z,98304.53
2022-07-30T15:53:30.262Z,98317.00
2022-07-30T15:55:58.000Z,98311.84
2022-07-30T15:58:24.640Z,98314.59
2022-07-30T16:00:51.309Z,98310.66
2022-07-30T16:03:18.094Z,98307.31
2022-07-30T16:05:52.417Z,98306.88
2022-07-30T16:08:20.610Z,98304.69
2022-07-30T16:10:48.108Z,98305.63
2022-07-30T16:13:15.017Z,98303.91
2022-07-30T16:15:42.766Z,98301.44
2022-07-30T16:18:09.431Z,98296.72
2022-07-30T16:20:36.046Z,98294.91
2022-07-30T16:23:02.771Z,98296.25
2022-07-30T16:25:29.397Z,98296.03
2022-07-30T16:27:56.011Z,98292.59
2022-07-30T16:30:27.561Z,98286.81
2022-07-30T16:32:56.430Z,98284.25
2022-07-30T16:35:23.513Z,98288.16
2022-07-30T16:37:50.375Z,98283.81
2022-07-30T16:40:16.972Z,98281.84
2022-07-30T16:42:43.669Z,98292.50
2022-07-30T16:45:10.539Z,98282.38
2022-07-30T16:47:37.218Z,98296.06
2022-07-30T16:50:04.800Z,98286.94
2022-07-30T16:52:31.457Z,98290.50
2022-07-30T16:54:58.163Z,98297.41
2022-07-30T16:57:24.753Z,98299.28
2022-07-30T16:59:51.354Z,98291.53
2022-07-30T17:02:17.989Z,98295.69
2022-07-30T17:04:44.553Z,98292.53
2022-07-30T17:07:11.222Z,98304.16
2022-07-30T17:09:37.810Z,98310.44
2022-07-30T17:12:12.305Z,98293.16
2022-07-30T17:14:41.228Z,98298.50
2022-07-30T17:17:13.795Z,98299.25
2022-07-30T17:19:40.827Z,98301.59
2022-07-30T17:22:07.404Z,98308.94
2022-07-30T17:24:34.013Z,98302.56
2022-07-30T17:27:00.842Z,98314.72
2022-07-30T17:29:27.446Z,98309.16
2022-07-30T17:31:55.632Z,98311.13
2022-07-30T17:34:22.266Z,98309.19
2022-07-30T17:36:52.187Z,98309.59
2022-07-30T17:40:26.280Z,98318.06
2022-07-30T17:42:07.819Z,98312.38
2022-07-30T17:44:35.532Z,98313.94
2022-07-30T17:47:02.278Z,98311.72
2022-07-30T17:51:57.111Z,98318.59
2022-07-30T17:54:23.792Z,98315.53
2022-07-30T17:56:50.426Z,98312.56
2022-07-30T17:59:16.977Z,98312.59
2022-07-30T18:01:43.569Z,98323.59
2022-07-30T18:04:10.214Z,98319.44
2022-07-30T18:06:36.824Z,98315.66
2022-07-30T18:09:05.020Z,98328.97
2022-07-30T18:11:31.681Z,98323.66
2022-07-30T18:13:58.306Z,98324.41
2022-07-30T18:16:25.457Z,98324.06
2022-07-30T18:18:52.142Z,98329.38
2022-07-30T18:21:18.709Z,98341.50
2022-07-30T18:23:45.409Z,98336.94
2022-07-30T18:26:12.604Z,98335.03
2022-07-30T18:28:39.242Z,98338.47
2022-07-30T18:31:06.173Z,98339.97
2022-07-30T18:33:32.948Z,98339.94
2022-07-30T18:35:59.685Z,98341.84
2022-07-30T18:38:26.303Z,98342.56
2022-07-30T18:40:58.834Z,98345.56
2022-07-30T18:43:30.762Z,98345.19
2022-07-30T18:45:58.452Z,98347.34
2022-07-30T18:48:25.268Z,98351.97
2022-07-30T18:50:53.047Z,98351.56
2022-07-30T18:53:19.683Z,98350.72
2022-07-30T18:55:46.336Z,98351.84
2022-07-30T18:58:12.914Z,98353.34
2022-07-30T19:00:44.134Z,98344.22
2022-07-30T19:03:16.462Z,98350.66
2022-07-30T19:05:45.490Z,98349.09
2022-07-30T19:08:12.311Z,98356.25
2022-07-30T19:10:40.042Z,98350.53
2022-07-30T19:13:06.822Z,98360.78
2022-07-30T19:15:33.553Z,98367.91
2022-07-30T19:18:00.132Z,98366.34
2022-07-30T19:20:26.871Z,98370.88
2022-07-30T19:23:03.841Z,98372.31
2022-07-30T19:25:32.467Z,98380.63
2022-07-30T19:27:59.757Z,98375.66
2022-07-30T19:30:26.609Z,98379.06
2022-07-30T19:32:53.232Z,98376.34
2022-07-30T19:35:19.911Z,98381.19
2022-07-30T19:37:47.006Z,98392.13
2022-07-30T19:40:14.103Z,98389.84
2022-07-30T19:42:41.680Z,98395.78
2022-07-30T19:45:11.768Z,98401.44
2022-07-30T19:47:39.588Z,98402.16
2022-07-30T19:50:10.197Z,98402.50
2022-07-30T19:52:37.903Z,98405.81
2022-07-30T19:55:17.168Z,98400.53
2022-07-30T19:57:54.276Z,98408.06
2022-07-30T20:00:25.098Z,98406.56
2022-07-30T20:02:52.681Z,98409.59
2022-07-30T20:05:20.261Z,98406.09
2022-07-30T20:07:51.454Z,98411.81
2022-07-30T20:10:19.474Z,98406.44
2022-07-30T20:12:49.664Z,98404.00
2022-07-30T20:15:17.151Z,98406.03
2022-07-30T20:17:43.823Z,98399.03
2022-07-30T20:20:13.751Z,98401.81
2022-07-30T20:22:41.077Z,98402.13
2022-07-30T20:25:09.103Z,98407.50
2022-07-30T20:27:38.948Z,98405.78
2022-07-30T20:30:08.199Z,98399.00
2022-07-30T20:32:36.759Z,98401.41
2022-07-30T20:35:03.942Z,98405.72
2022-07-30T20:37:30.532Z,98413.25
2022-07-30T20:39:57.309Z,98408.34
2022-07-30T20:42:24.751Z,98415.50
2022-07-30T20:44:53.518Z,98420.81
2022-07-30T20:47:34.609Z,98418.97
2022-07-30T20:50:14.121Z,98415.88
2022-07-30T20:52:46.709Z,98415.69
2022-07-30T20:55:16.845Z,98416.84
2022-07-30T20:58:00.234Z,98422.91
2022-07-30T21:00:31.635Z,98426.66
2022-07-30T21:02:58.369Z,98424.00
2022-07-30T21:05:30.317Z,98428.09
2022-07-30T21:07:58.191Z,98419.84
2022-07-30T21:10:25.480Z,98421.00
2022-07-30T21:12:53.362Z,98421.25
2022-07-30T21:15:25.332Z,98423.53
2022-07-30T21:17:54.579Z,98415.47
2022-07-30T21:20:27.757Z,98413.19
2022-07-30T21:23:10.931Z,98408.13
2022-07-30T21:26:00.068Z,98413.84
2022-07-30T21:28:28.083Z,98408.13
2022-07-30T21:30:57.220Z,98409.75
2022-07-30T21:33:24.335Z,98411.13
2022-07-30T21:35:57.967Z,98413.91
2022-07-30T21:38:26.609Z,98417.31
2022-07-30T21:40:53.573Z,98416.88
2022-07-30T21:43:29.484Z,98416.88
2022-07-30T21:45:58.382Z,98415.38
2022-07-30T21:48:26.281Z,98411.25
2022-07-30T21:50:54.986Z,98422.03
2022-07-30T21:53:29.885Z,98419.84
2022-07-30T21:56:08.459Z,98419.56
2022-07-30T21:58:35.071Z,98421.25
2022-07-30T22:01:17.188Z,98416.41
2022-07-30T22:04:03.307Z,98418.31
2022-07-30T22:06:38.340Z,98416.59
2022-07-30T22:09:22.210Z,98412.88
2022-07-30T22:12:00.687Z,98415.06
2022-07-30T22:14:29.057Z,98413.94
2022-07-30T22:16:57.010Z,98416.50
2022-07-30T22:19:23.782Z,98416.50
2022-07-30T22:21:52.949Z,98414.13
2022-07-30T22:24:29.873Z,98421.44
2022-07-30T22:27:00.959Z,98413.00
2022-07-30T22:29:27.989Z,98412.69
2022-07-30T22:32:01.851Z,98416.34
2022-07-30T22:34:28.790Z,98414.91
2022-07-30T22:36:55.374Z,98425.41
2022-07-30T22:39:24.308Z,98414.06
2022-07-30T22:41:59.096Z,98414.78
2022-07-30T22:44:27.640Z,98416.94
2022-07-30T22:46:56.167Z,98415.03
2022-07-30T22:49:24.487Z,98411.44
2022-07-30T22:52:23.615Z,98406.34
2022-07-30T22:54:53.105Z,98408.25
2022-07-30T22:57:22.954Z,98407.59
2022-07-30T23:00:00.266Z,98413.31
2022-07-30T23:02:30.631Z,98410.03
2022-07-30T23:04:57.197Z,98416.56
2022-07-30T23:07:34.071Z,98411.38
2022-07-30T23:10:17.691Z,98410.50
2022-07-30T23:12:47.086Z,98406.69
2022-07-30T23:15:13.934Z,98407.19
2022-07-30T23:17:40.776Z,98401.53
2022-07-30T23:20:09.942Z,98399.34
2022-07-30T23:22:36.713Z,98402.75
2022-07-30T23:25:06.384Z,98409.63
2022-07-30T23:27:33.418Z,98406.84
2022-07-30T23:30:00.012Z,98404.25
2022-07-30T23:32:26.651Z,98400.63
2022-07-30T23:34:53.227Z,98403.84
2022-07-30T23:37:19.879Z,98404.75
2022-07-30T23:39:46.715Z,98407.06
2022-07-30T23:42:13.321Z,98400.88
2022-07-30T23:44:39.877Z,98392.88
2022-07-30T23:47:07.530Z,98392.88
2022-07-30T23:49:34.257Z,98396.91
2022-07-30T23:52:00.867Z,98394.31
2022-07-30T23:54:28.913Z,98396.34
2022-07-30T23:56:56.343Z,98393.63
2022-07-30T23:59:24.164Z,98401.53
